Time;durP1;ratioP1;P1;durP2;ratioP2;P2;SDS_P1;SDS_P2;PMS_P1;PMS_P2;Temp;Humidity;BMP_temperature;BMP_pressure;BME280_temperature;BME280_humidity;BME280_pressure;Samples;Min_cycle;Max_cycle;Signal;HPM_P1;HPM_P2
2021/05/29 00:02:24;;;;;;;2.40;1.90;;;;;;;24.32;43.43;95072.28;4945328;29;20424;-70
2021/05/29 00:04:50;;;;;;;2.63;1.65;;;;;;;24.32;42.98;95066.06;4930242;29;20051;-70
2021/05/29 00:07:16;;;;;;;2.42;2.15;;;;;;;24.31;43.40;95065.34;4930157;29;20036;-70
2021/05/29 00:09:41;;;;;;;1.77;1.67;;;;;;;24.30;43.47;95072.03;4929124;29;20038;-70
2021/05/29 00:12:10;;;;;;;2.25;1.80;;;;;;;24.29;43.67;95056.94;4930053;29;20086;-70
2021/05/29 00:14:37;;;;;;;2.38;1.70;;;;;;;24.12;43.87;95048.16;4929736;29;20034;-70
2021/05/29 00:17:03;;;;;;;2.72;2.13;;;;;;;24.29;43.35;95056.94;4913171;29;20133;-69
2021/05/29 00:19:29;;;;;;;2.00;1.80;;;;;;;24.28;43.51;95055.44;4930223;29;20074;-69
2021/05/29 00:21:54;;;;;;;2.03;1.75;;;;;;;24.18;43.57;95051.56;4930190;29;20127;-70
2021/05/29 00:24:19;;;;;;;1.92;1.67;;;;;;;24.30;43.66;95052.19;4913060;29;20028;-69
2021/05/29 00:26:45;;;;;;;2.45;2.10;;;;;;;24.29;43.52;95051.47;4912730;29;20042;-69
2021/05/29 00:29:10;;;;;;;2.10;1.85;;;;;;;24.15;43.48;95036.22;4928523;29;20391;-70
2021/05/29 00:31:36;;;;;;;2.17;1.85;;;;;;;24.25;43.55;95040.09;4913074;29;20028;-70
2021/05/29 00:34:01;;;;;;;2.00;1.80;;;;;;;24.15;43.47;95033.50;4916435;29;20030;-70
2021/05/29 00:36:27;;;;;;;2.72;1.73;;;;;;;24.21;44.28;95033.44;4916843;29;20031;-70
2021/05/29 00:38:52;;;;;;;2.47;1.45;;;;;;;24.08;43.71;95019.69;4934034;29;20028;-69
2021/05/29 00:41:18;;;;;;;1.85;1.50;;;;;;;24.27;44.16;95043.03;4916740;29;20019;-69
2021/05/29 00:43:43;;;;;;;2.25;1.75;;;;;;;24.24;43.73;95041.34;4933612;29;20038;-69
2021/05/29 00:46:09;;;;;;;2.40;1.88;;;;;;;24.24;44.19;95035.16;4933787;29;20024;-70
2021/05/29 00:48:35;;;;;;;2.28;1.80;;;;;;;24.24;44.03;95033.16;4933200;29;20427;-70
2021/05/29 00:51:01;;;;;;;2.95;2.10;;;;;;;24.24;44.15;95033.16;4933633;29;20551;-70
2021/05/29 00:53:27;;;;;;;2.20;1.80;;;;;;;24.23;43.60;95042.59;4916687;29;20061;-69
2021/05/29 00:55:53;;;;;;;1.73;1.63;;;;;;;24.23;43.75;95031.69;4916482;29;20032;-69
2021/05/29 00:58:20;;;;;;;1.77;1.50;;;;;;;24.22;43.63;95041.13;4933645;29;20030;-69
2021/05/29 01:00:45;;;;;;;1.73;1.60;;;;;;;24.22;44.05;95052.03;4933524;29;20430;-69
2021/05/29 01:03:11;;;;;;;2.67;1.80;;;;;;;24.22;43.86;95038.38;4933643;29;20051;-69
2021/05/29 01:05:36;;;;;;;2.70;1.80;;;;;;;24.21;44.05;95039.63;4933748;29;20027;-70
2021/05/29 01:08:02;;;;;;;1.90;1.70;;;;;;;24.21;43.98;95050.56;4933196;29;20028;-69
2021/05/29 01:10:27;;;;;;;2.42;2.00;;;;;;;24.19;43.89;95031.22;4931307;29;20046;-68
2021/05/29 01:12:54;;;;;;;1.70;1.55;;;;;;;24.21;44.12;95034.19;4918632;29;20087;-70
2021/05/29 01:15:20;;;;;;;2.08;1.88;;;;;;;24.19;44.49;95035.97;4914496;29;20524;-69
2021/05/29 01:17:45;;;;;;;2.33;1.73;;;;;;;24.18;44.21;95029.75;4914451;29;20070;-71
2021/05/29 01:20:11;;;;;;;2.25;1.50;;;;;;;24.16;44.47;95037.72;4914929;29;20032;-69
2021/05/29 01:22:44;;;;;;;2.00;1.80;;;;;;;24.17;44.47;95028.28;4933044;29;20542;-69
2021/05/29 01:25:24;;;;;;;1.92;1.63;;;;;;;24.18;44.42;95024.28;4933366;29;20496;-70
2021/05/29 01:28:17;;;;;;;1.95;1.75;;;;;;;24.17;44.64;95028.28;4916328;29;20147;-68
2021/05/29 01:30:52;;;;;;;1.70;1.60;;;;;;;24.16;44.21;95032.25;4907912;29;20048;-69
2021/05/29 01:33:25;;;;;;;2.40;1.70;;;;;;;24.14;44.20;95023.84;4913843;29;20119;-71
2021/05/29 01:35:52;;;;;;;2.15;1.52;;;;;;;24.14;44.73;95032.03;4916899;29;20031;-70
2021/05/29 01:38:18;;;;;;;1.92;1.45;;;;;;;24.13;44.59;95027.81;4915749;29;20492;-69
2021/05/29 01:40:44;;;;;;;2.88;1.67;;;;;;;24.13;44.74;95027.81;4915440;29;20114;-69
2021/05/29 01:43:10;;;;;;;1.92;1.60;;;;;;;24.13;44.40;95027.81;4932176;29;20031;-69
2021/05/29 01:45:38;;;;;;;1.60;1.48;;;;;;;24.13;44.26;95022.38;4932477;29;20503;-68
2021/05/29 01:48:05;;;;;;;2.17;1.65;;;;;;;24.13;44.68;95022.38;4932426;29;20027;-70
2021/05/29 01:50:30;;;;;;;2.10;1.60;;;;;;;24.10;44.40;95023.41;4932408;29;20034;-70
2021/05/29 01:53:02;;;;;;;2.15;1.60;;;;;;;24.11;44.01;95035.78;4931201;29;20567;-68
2021/05/29 01:55:29;;;;;;;1.80;1.55;;;;;;;24.10;44.71;95026.13;4915772;29;20492;-70
2021/05/29 01:57:55;;;;;;;2.28;1.35;;;;;;;24.08;44.77;95031.38;4932746;29;20038;-70
2021/05/29 02:00:22;;;;;;;1.73;1.55;;;;;;;24.09;44.41;95027.38;4915582;29;20035;-69
2021/05/29 02:02:47;;;;;;;1.77;1.33;;;;;;;24.01;44.84;95025.75;4915299;29;20411;-69
2021/05/29 02:05:15;;;;;;;1.42;1.30;;;;;;;24.08;44.27;95028.63;4915698;29;20035;-70
2021/05/29 02:07:41;;;;;;;1.45;1.35;;;;;;;24.08;44.71;95025.91;4931607;29;20035;-70
2021/05/29 02:10:07;;;;;;;2.25;1.30;;;;;;;24.05;44.76;95032.41;4932168;29;20051;-70
2021/05/29 02:12:40;;;;;;;2.20;1.42;;;;;;;23.97;44.84;95025.28;4932534;29;20034;-70
2021/05/29 02:15:06;;;;;;;1.55;1.42;;;;;;;24.07;45.16;95029.16;4947152;29;20567;-70
2021/05/29 02:17:32;;;;;;;2.50;1.80;;;;;;;24.05;44.48;95020.72;4915202;29;20055;-70
2021/05/29 02:19:57;;;;;;;1.92;1.40;;;;;;;24.05;44.89;95026.94;4931129;29;20023;-70
2021/05/29 02:22:23;;;;;;;1.50;1.35;;;;;;;24.04;44.45;95019.25;4932561;29;20032;-70
2021/05/29 02:24:48;;;;;;;1.80;1.50;;;;;;;24.02;44.43;95025.22;4932165;29;20036;-71
2021/05/29 02:27:13;;;;;;;1.63;1.52;;;;;;;24.01;44.34;95029.19;4932175;29;20086;-70
2021/05/29 02:29:39;;;;;;;1.80;1.50;;;;;;;24.05;44.68;95034.38;4930553;29;20081;-70
2021/05/29 02:32:05;;;;;;;1.95;1.60;;;;;;;24.04;44.35;95020.00;4931312;29;20028;-68
2021/05/29 02:34:31;;;;;;;2.08;1.50;;;;;;;24.03;44.92;95023.97;4915314;29;20040;-70
2021/05/29 02:36:57;;;;;;;1.65;1.50;;;;;;;24.04;44.58;95030.91;4912794;29;20024;-69
2021/05/29 02:39:22;;;;;;;2.15;1.65;;;;;;;24.05;44.38;95026.94;4912901;29;20489;-70
2021/05/29 02:41:48;;;;;;;1.50;1.20;;;;;;;24.00;44.63;95014.06;4912986;29;20412;-69
2021/05/29 02:44:13;;;;;;;2.20;1.50;;;;;;;24.04;44.27;95030.19;4912800;29;20032;-69
2021/05/29 02:46:39;;;;;;;2.05;1.65;;;;;;;24.05;44.33;95026.94;4912197;29;20583;-68
2021/05/29 02:49:04;;;;;;;1.75;1.30;;;;;;;24.05;44.50;95032.41;4895789;29;20484;-70
2021/05/29 02:51:30;;;;;;;1.95;1.50;;;;;;;24.05;44.50;95032.41;4925767;29;20035;-70
2021/05/29 02:53:55;;;;;;;2.17;1.50;;;;;;;23.94;44.59;95007.94;4931002;29;20031;-70
2021/05/29 02:56:21;;;;;;;2.95;1.50;;;;;;;24.00;45.04;95025.00;4930976;29;20031;-70
2021/05/29 02:58:46;;;;;;;2.08;1.30;;;;;;;24.03;44.51;95034.88;4931011;29;20123;-70
2021/05/29 03:01:11;;;;;;;1.60;1.42;;;;;;;24.03;44.82;95037.59;4930905;29;20031;-69
2021/05/29 03:03:37;;;;;;;1.63;1.45;;;;;;;24.03;44.83;95031.41;4930832;29;20503;-68
2021/05/29 03:06:02;;;;;;;1.90;1.52;;;;;;;24.02;44.33;95033.41;4931081;29;20042;-68
2021/05/29 03:08:28;;;;;;;1.60;1.50;;;;;;;24.03;45.14;95034.16;4916626;29;20039;-69
2021/05/29 03:10:54;;;;;;;2.00;1.50;;;;;;;24.04;44.93;95033.63;4918830;29;20411;-68
2021/05/29 03:13:19;;;;;;;2.03;1.30;;;;;;;24.02;44.97;95041.59;4926634;29;20039;-71
2021/05/29 03:15:45;;;;;;;1.65;1.40;;;;;;;24.00;44.71;95035.91;4929665;29;20050;-69
2021/05/29 03:18:10;;;;;;;1.55;1.45;;;;;;;24.00;44.64;95035.16;4931137;29;20032;-69
2021/05/29 03:20:36;;;;;;;1.88;1.42;;;;;;;24.00;44.48;95041.34;4930833;29;20024;-70
2021/05/29 03:23:02;;;;;;;1.38;1.10;;;;;;;23.99;45.05;95044.59;4929962;29;20045;-69
2021/05/29 03:25:28;;;;;;;2.05;1.20;;;;;;;23.90;44.91;95042.97;4930526;29;20048;-69
2021/05/29 03:27:54;;;;;;;1.60;1.40;;;;;;;24.00;44.55;95046.09;4930386;29;20030;-70
2021/05/29 03:30:22;;;;;;;1.42;1.20;;;;;;;23.99;44.68;95050.81;4929787;29;20028;-70
2021/05/29 03:32:48;;;;;;;1.70;1.40;;;;;;;23.99;44.73;95050.81;4930957;29;20834;-70
2021/05/29 03:35:13;;;;;;;1.95;1.38;;;;;;;24.00;44.57;95046.09;4930832;29;20038;-69
2021/05/29 03:37:39;;;;;;;1.20;1.10;;;;;;;24.00;45.26;95040.63;4930946;29;20519;-70
2021/05/29 03:40:06;;;;;;;1.65;1.30;;;;;;;23.98;44.73;95049.31;4930690;29;20119;-69
2021/05/29 03:42:31;;;;;;;1.75;1.40;;;;;;;23.88;44.58;95029.13;4930657;29;20032;-68
2021/05/29 03:44:57;;;;;;;1.40;1.30;;;;;;;23.98;44.79;95035.69;4945209;29;20563;-69
2021/05/29 03:47:22;;;;;;;2.45;1.40;;;;;;;23.99;44.87;95045.34;4930762;29;20866;-70
2021/05/29 03:49:48;;;;;;;1.20;1.10;;;;;;;23.99;45.12;95045.34;4930304;29;20103;-69
2021/05/29 03:52:13;;;;;;;1.88;1.60;;;;;;;23.99;44.85;95039.91;4930913;29;20058;-69
2021/05/29 03:54:39;;;;;;;1.40;1.23;;;;;;;24.00;44.94;95033.16;4930893;29;20610;-69
2021/05/29 03:57:04;;;;;;;1.80;1.23;;;;;;;24.00;44.60;95025.00;4917588;29;20035;-71
2021/05/29 03:59:30;;;;;;;1.20;1.10;;;;;;;24.02;45.06;95038.88;4911693;29;20068;-70
2021/05/29 04:01:55;;;;;;;2.22;1.20;;;;;;;24.05;45.04;95048.75;4915333;29;20032;-72
2021/05/29 04:04:21;;;;;;;2.13;1.45;;;;;;;24.07;44.74;95040.78;4915119;29;20066;-71
2021/05/29 04:06:46;;;;;;;1.90;1.50;;;;;;;24.09;44.96;95043.00;4915674;29;20397;-70
2021/05/29 04:09:12;;;;;;;1.70;1.23;;;;;;;24.10;45.21;95045.22;4915034;29;20031;-71
2021/05/29 04:11:37;;;;;;;1.95;1.30;;;;;;;24.11;45.08;95052.16;4897448;29;20032;-71
2021/05/29 04:14:04;;;;;;;1.30;1.10;;;;;;;24.11;45.36;95046.72;4896308;29;20032;-71
2021/05/29 04:16:30;;;;;;;1.80;1.20;;;;;;;24.11;45.88;95049.44;4913719;29;20047;-71
2021/05/29 04:18:55;;;;;;;1.55;1.20;;;;;;;24.00;45.30;95035.91;4914575;29;20035;-69
2021/05/29 04:21:21;;;;;;;1.50;1.20;;;;;;;24.11;45.55;95041.25;4899454;29;20020;-69
2021/05/29 04:23:46;;;;;;;1.30;1.15;;;;;;;24.05;45.59;95037.84;4912305;29;20028;-69
2021/05/29 04:26:11;;;;;;;1.65;1.30;;;;;;;24.14;45.86;95051.16;4914569;29;20024;-69
2021/05/29 04:28:37;;;;;;;1.58;1.17;;;;;;;24.15;45.94;95052.59;4913064;29;20032;-68
2021/05/29 04:31:03;;;;;;;1.48;1.20;;;;;;;24.17;45.57;95050.13;4911669;29;20087;-68
2021/05/29 04:33:28;;;;;;;1.55;1.13;;;;;;;24.17;45.40;95050.13;4914658;29;20481;-68
2021/05/29 04:35:54;;;;;;;1.95;1.40;;;;;;;24.16;45.80;95037.00;4923519;29;20150;-71
2021/05/29 04:38:19;;;;;;;1.85;1.23;;;;;;;24.20;45.38;95048.34;4900299;29;20095;-68
2021/05/29 04:40:45;;;;;;;1.55;1.20;;;;;;;24.20;45.60;95054.56;4925951;29;20031;-69
2021/05/29 04:43:10;;;;;;;1.33;1.20;;;;;;;24.20;45.59;95043.63;4907160;29;20564;-69
2021/05/29 04:45:36;;;;;;;1.77;1.30;;;;;;;24.19;46.09;95042.16;4922922;29;20031;-70
2021/05/29 04:48:01;;;;;;;2.10;1.30;;;;;;;24.20;45.86;95043.63;4925709;29;20119;-68
2021/05/29 04:50:26;;;;;;;1.50;1.23;;;;;;;24.21;45.53;95045.09;4904396;29;20507;-68
2021/05/29 04:52:52;;;;;;;1.15;1.05;;;;;;;24.20;45.79;95054.56;4912853;29;20058;-70
2021/05/29 04:55:17;;;;;;;1.48;1.30;;;;;;;24.17;45.92;95039.19;4912703;29;20035;-70
2021/05/29 04:57:43;;;;;;;1.70;1.15;;;;;;;24.19;45.92;95047.59;4913365;29;20487;-70
2021/05/29 05:00:10;;;;;;;1.67;1.05;;;;;;;24.21;45.42;95045.09;4915549;29;20024;-70
2021/05/29 05:02:35;;;;;;;1.42;1.23;;;;;;;24.18;46.02;95043.38;4914359;29;20040;-70
2021/05/29 05:05:01;;;;;;;1.30;1.05;;;;;;;24.21;45.81;95045.09;4894444;29;20185;-69
2021/05/29 05:07:26;;;;;;;1.73;1.30;;;;;;;24.23;45.62;95042.59;4910236;29;20028;-70
2021/05/29 05:09:52;;;;;;;1.10;0.90;;;;;;;24.23;46.04;95042.59;4915288;29;20121;-70
2021/05/29 05:12:17;;;;;;;1.20;1.10;;;;;;;24.13;45.99;95038.75;4910043;29;20027;-69
2021/05/29 05:14:43;;;;;;;1.63;1.40;;;;;;;24.24;45.50;95049.53;4882034;29;20036;-69
2021/05/29 05:17:08;;;;;;;1.33;1.08;;;;;;;24.32;45.80;95044.22;4893958;29;20732;-70
2021/05/29 05:19:33;;;;;;;1.20;1.10;;;;;;;24.29;45.63;95051.47;4901471;29;20047;-71
2021/05/29 05:21:59;;;;;;;1.60;1.20;;;;;;;24.22;45.83;95024.75;4906504;29;20028;-71
2021/05/29 05:24:25;;;;;;;1.90;1.20;;;;;;;24.23;45.89;95017.28;4900479;29;20036;-72
2021/05/29 05:26:50;;;;;;;2.65;1.05;;;;;;;24.35;46.41;95049.44;4882662;29;20047;-72
2021/05/29 05:29:16;;;;;;;2.03;1.10;;;;;;;24.37;45.99;95046.94;4918228;29;20035;-70
2021/05/29 05:31:43;;;;;;;1.30;1.00;;;;;;;24.39;46.12;95045.16;4921985;29;20044;-72
2021/05/29 05:34:09;;;;;;;1.58;1.27;;;;;;;24.39;45.96;95038.94;4916900;29;20435;-72
2021/05/29 05:36:38;;;;;;;1.90;1.05;;;;;;;24.43;45.56;95044.88;4917441;29;20048;-72
2021/05/29 05:39:05;;;;;;;1.23;1.00;;;;;;;24.50;45.83;95044.28;4920895;29;20087;-72
2021/05/29 05:41:30;;;;;;;1.17;0.90;;;;;;;24.54;45.01;95045.47;4931404;29;20085;-72
2021/05/29 05:43:56;;;;;;;1.55;1.00;;;;;;;24.59;44.64;95052.13;4929109;29;20544;-70
2021/05/29 05:46:23;;;;;;;1.20;1.00;;;;;;;24.66;44.33;95051.50;4928028;29;20036;-70
2021/05/29 05:48:48;;;;;;;1.92;1.20;;;;;;;24.74;44.59;95041.47;4923638;29;20035;-71
2021/05/29 05:51:14;;;;;;;1.75;1.10;;;;;;;24.79;43.28;95037.94;4916195;29;20036;-70
2021/05/29 05:53:39;;;;;;;1.50;1.10;;;;;;;24.83;43.52;95042.59;4913705;29;20032;-70
2021/05/29 05:56:06;;;;;;;1.30;1.00;;;;;;;24.99;43.02;95052.56;4902013;29;20032;-71
2021/05/29 05:58:33;;;;;;;1.63;1.17;;;;;;;25.10;43.24;95046.94;4916703;29;20620;-70
2021/05/29 06:00:58;;;;;;;1.58;1.20;;;;;;;25.18;42.58;95053.28;4930278;29;20514;-71
2021/05/29 06:03:24;;;;;;;2.70;1.00;;;;;;;25.31;42.35;95045.13;4931914;29;20051;-69
2021/05/29 06:05:49;;;;;;;2.55;1.15;;;;;;;25.41;42.23;95048.94;4938868;29;20791;-68
2021/05/29 06:08:15;;;;;;;1.60;1.20;;;;;;;25.49;42.64;95033.41;4931874;29;20094;-69
2021/05/29 06:10:40;;;;;;;1.15;0.80;;;;;;;25.60;41.98;95038.69;4923630;29;20032;-69
2021/05/29 06:13:10;;;;;;;1.80;1.20;;;;;;;25.57;42.40;95018.56;4931797;29;20024;-69
2021/05/29 06:20:48;;;;;;;1.63;1.00;;;;;;;25.90;41.65;95040.66;4929734;29;20279;-68
2021/05/29 06:23:14;;;;;;;1.33;1.10;;;;;;;26.00;42.06;95044.44;4931473;29;20054;-68
2021/05/29 06:25:42;;;;;;;2.35;1.10;;;;;;;26.08;41.71;95037.06;4928400;29;20051;-69
2021/05/29 06:28:08;;;;;;;1.27;1.00;;;;;;;26.16;41.28;95035.19;4917527;29;20483;-71
2021/05/29 06:30:35;;;;;;;1.75;1.20;;;;;;;26.19;41.12;95045.09;4928609;29;20031;-73
2021/05/29 06:33:00;;;;;;;1.67;1.10;;;;;;;26.25;41.54;95037.50;4930945;29;20138;-69
2021/05/29 06:35:26;;;;;;;2.72;1.00;;;;;;;26.34;41.14;95046.03;4929654;29;20101;-69
2021/05/29 06:37:51;;;;;;;2.80;1.23;;;;;;;26.36;41.13;95037.31;4930053;29;20423;-70
2021/05/29 06:40:17;;;;;;;2.22;1.20;;;;;;;26.27;38.43;95045.91;4919611;29;20064;-69
2021/05/29 06:42:42;;;;;;;2.25;0.70;;;;;;;26.34;39.57;95034.38;4917811;29;20047;-70
2021/05/29 06:45:08;;;;;;;3.60;0.90;;;;;;;26.39;39.27;95030.75;4919157;29;20032;-70
2021/05/29 06:47:35;;;;;;;1.40;0.88;;;;;;;26.44;39.54;95027.94;4922779;29;20036;-70
2021/05/29 06:50:01;;;;;;;1.50;0.98;;;;;;;26.48;39.25;95027.59;4925676;29;20062;-70
2021/05/29 06:52:29;;;;;;;1.90;1.00;;;;;;;26.57;39.45;95035.38;4909613;29;20415;-70
2021/05/29 07:00:16;;;;;;;1.25;1.00;;;;;;;26.70;39.88;95033.34;4920429;29;20051;-68
2021/05/29 07:02:41;;;;;;;2.63;1.10;;;;;;;26.78;39.44;95029.41;4927950;29;20039;-73
2021/05/29 07:05:10;;;;;;;2.35;0.90;;;;;;;26.91;39.82;95021.19;4924802;29;20036;-67
2021/05/29 07:07:37;;;;;;;3.22;1.10;;;;;;;26.93;37.51;95013.16;4930293;29;20027;-68
2021/05/29 07:10:04;;;;;;;3.80;1.13;;;;;;;26.97;37.79;95018.34;4908531;29;20063;-69
2021/05/29 07:12:29;;;;;;;5.03;1.30;;;;;;;27.01;39.84;95024.97;4930351;29;20476;-69
2021/05/29 07:14:55;;;;;;;7.88;2.83;;;;;;;26.96;38.12;95016.84;4923529;29;20032;-67
2021/05/29 07:17:27;;;;;;;7.88;3.22;;;;;;;27.02;39.31;95007.22;4913445;29;20031;-68
2021/05/29 07:19:53;;;;;;;8.00;3.13;;;;;;;27.04;39.47;95015.66;4942372;29;20051;-67
2021/05/29 07:22:18;;;;;;;7.57;2.20;;;;;;;26.99;39.02;95002.81;4919797;29;20027;-69
2021/05/29 07:24:44;;;;;;;14.48;3.40;;;;;;;27.14;39.07;95016.66;4909882;29;20028;-74
2021/05/29 07:27:09;;;;;;;5.70;2.13;;;;;;;27.18;39.61;95006.13;4927044;29;20106;-72
2021/05/29 07:29:35;;;;;;;6.15;2.30;;;;;;;27.20;39.64;95008.31;4926320;29;20428;-71
2021/05/29 07:32:00;;;;;;;8.95;2.00;;;;;;;27.21;38.61;95005.03;4929694;29;20027;-71
2021/05/29 07:34:25;;;;;;;3.80;1.75;;;;;;;27.20;38.35;95025.50;4926495;29;20038;-68
2021/05/29 07:36:51;;;;;;;4.22;2.10;;;;;;;27.29;39.50;95008.59;4926574;29;20043;-69
2021/05/29 07:39:16;;;;;;;5.18;1.60;;;;;;;27.30;39.63;94996.34;4921150;29;20024;-70
2021/05/29 07:41:42;;;;;;;5.25;2.00;;;;;;;27.32;39.60;95004.78;4927390;29;20102;-72
2021/05/29 07:44:07;;;;;;;4.95;1.75;;;;;;;27.29;39.37;95000.34;4926588;29;20048;-69
2021/05/29 07:46:34;;;;;;;6.68;2.00;;;;;;;27.30;40.07;95008.03;4922165;29;20468;-70
2021/05/29 07:49:00;;;;;;;5.90;1.58;;;;;;;27.27;38.28;95003.63;4927089;29;20595;-68
2021/05/29 07:51:26;;;;;;;5.80;1.85;;;;;;;27.30;38.24;94980.63;4925691;29;20020;-68
2021/05/29 07:53:51;;;;;;;4.45;1.48;;;;;;;27.31;38.21;94992.34;4928165;29;20027;-69
2021/05/29 07:56:17;;;;;;;5.75;1.70;;;;;;;27.34;39.18;94996.75;4925470;29;20056;-70
2021/05/29 07:58:44;;;;;;;4.05;1.58;;;;;;;27.31;38.01;94986.84;4928233;29;20041;-70
2021/05/29 08:01:09;;;;;;;2.72;1.42;;;;;;;27.12;37.66;94985.59;4920707;29;20098;-70
2021/05/29 08:03:35;;;;;;;2.90;1.17;;;;;;;27.30;38.25;94990.88;4907969;29;20051;-71
2021/05/29 08:06:04;;;;;;;2.53;1.40;;;;;;;27.22;37.36;94979.09;4904353;29;20028;-70
2021/05/29 08:08:29;;;;;;;4.95;1.55;;;;;;;27.38;37.61;94986.16;4906827;29;20016;-70
2021/05/29 08:10:57;;;;;;;3.50;1.20;;;;;;;27.42;37.27;94975.59;4900784;29;20875;-70
2021/05/29 08:13:23;;;;;;;4.90;1.50;;;;;;;27.46;37.48;94976.00;4910967;29;20028;-69
2021/05/29 08:15:48;;;;;;;2.65;1.23;;;;;;;27.53;37.82;94986.31;4935022;29;20504;-69
2021/05/29 08:18:17;;;;;;;2.70;1.30;;;;;;;27.60;37.76;95002.13;4910736;29;20024;-68
2021/05/29 08:20:44;;;;;;;3.20;1.10;;;;;;;27.53;35.35;94980.84;4907468;29;20507;-66
2021/05/29 08:23:09;;;;;;;3.22;1.30;;;;;;;27.61;35.77;94984.38;4910158;29;20111;-67
2021/05/29 08:25:35;;;;;;;5.57;1.20;;;;;;;27.40;36.52;94989.84;4905241;29;20734;-69
2021/05/29 08:28:01;;;;;;;4.07;1.10;;;;;;;27.37;35.56;94973.75;4894145;29;20024;-69
2021/05/29 08:30:26;;;;;;;2.17;1.13;;;;;;;27.44;35.54;94978.53;4895969;29;20393;-68
2021/05/29 08:32:52;;;;;;;2.72;1.05;;;;;;;27.43;35.53;94979.81;4899351;29;20047;-66
2021/05/29 08:35:17;;;;;;;3.88;1.15;;;;;;;27.47;35.19;94972.72;4904945;29;20035;-67
2021/05/29 08:37:45;;;;;;;1.67;0.98;;;;;;;27.36;35.34;94966.78;4909026;29;20032;-67
2021/05/29 08:40:11;;;;;;;3.85;1.20;;;;;;;27.33;34.68;94973.34;4937346;29;20123;-67
2021/05/29 08:42:37;;;;;;;3.55;1.10;;;;;;;27.31;34.79;94978.63;4900702;29;20032;-67
2021/05/29 08:45:04;;;;;;;3.30;1.13;;;;;;;27.27;34.85;94970.00;4937211;29;20031;-68
2021/05/29 08:47:29;;;;;;;2.45;1.05;;;;;;;27.36;34.34;94961.28;4910242;29;20083;-66
2021/05/29 08:49:55;;;;;;;2.28;0.90;;;;;;;27.39;34.45;94965.72;4908405;29;20024;-68
2021/05/29 08:52:20;;;;;;;2.75;1.02;;;;;;;27.35;34.27;94970.78;4909077;29;20024;-67
2021/05/29 08:54:46;;;;;;;2.33;0.90;;;;;;;27.28;33.94;94966.00;4911409;29;20028;-66
2021/05/29 08:57:17;;;;;;;3.13;1.02;;;;;;;27.26;34.46;94957.53;4914390;29;20036;-67
2021/05/29 08:59:43;;;;;;;4.10;0.85;;;;;;;27.24;34.58;94955.34;4911083;29;20452;-67
2021/05/29 09:02:08;;;;;;;1.50;1.05;;;;;;;27.20;34.51;94951.47;4910161;29;20028;-67
2021/05/29 09:04:34;;;;;;;2.08;0.85;;;;;;;27.33;33.83;94951.41;4927052;29;20062;-67
2021/05/29 09:06:59;;;;;;;4.93;1.25;;;;;;;27.31;34.16;94948.47;4927833;29;20039;-67
2021/05/29 09:09:25;;;;;;;2.45;0.95;;;;;;;27.27;33.86;94950.78;4898240;29;20039;-67
2021/05/29 09:11:52;;;;;;;2.35;0.93;;;;;;;27.17;33.64;94955.28;4903627;29;20036;-67
2021/05/29 09:14:36;;;;;;;2.50;1.17;;;;;;;27.25;33.43;94939.63;4910648;29;20035;-67
2021/05/29 09:17:10;;;;;;;3.47;1.00;;;;;;;27.37;32.64;94947.03;4931203;29;20039;-75
2021/05/29 09:19:57;;;;;;;2.72;1.10;;;;;;;27.24;32.74;94949.84;4914524;29;20028;-75
2021/05/29 09:22:30;;;;;;;2.70;1.10;;;;;;;27.19;31.39;94947.28;4927345;29;20106;-74
2021/05/29 09:25:12;;;;;;;2.22;0.90;;;;;;;26.91;32.10;94917.03;4925597;29;20531;-75
2021/05/29 09:27:59;;;;;;;3.17;1.20;;;;;;;27.11;32.67;94930.00;4912702;29;20028;-74
2021/05/29 09:30:47;;;;;;;4.05;1.27;;;;;;;27.10;32.42;94931.28;4915685;29;20183;-73
2021/05/29 09:33:16;;;;;;;4.78;1.10;;;;;;;27.07;31.57;94926.13;4931883;29;20027;-74
2021/05/29 09:35:42;;;;;;;1.73;1.02;;;;;;;26.85;31.62;94924.63;4930100;29;20035;-75
2021/05/29 09:38:08;;;;;;;2.13;1.00;;;;;;;26.81;31.72;94907.78;4947865;29;21746;-74
2021/05/29 09:40:34;;;;;;;1.60;1.15;;;;;;;26.77;31.94;94923.81;4897839;29;20020;-75
2021/05/29 09:43:05;;;;;;;2.47;0.93;;;;;;;26.65;31.64;94904.69;4933289;29;20046;-74
2021/05/29 09:45:30;;;;;;;1.38;0.70;;;;;;;26.58;31.96;94906.09;4912126;29;20110;-73
2021/05/29 09:48:16;;;;;;;2.78;1.00;;;;;;;26.66;32.08;94917.13;4948452;29;20431;-75
2021/05/29 09:51:07;;;;;;;2.97;1.00;;;;;;;26.73;31.70;94911.72;4917231;29;20193;-73
2021/05/29 09:53:37;;;;;;;2.55;0.90;;;;;;;26.76;32.74;94911.38;4929717;29;20043;-74
2021/05/29 09:56:03;;;;;;;2.05;0.90;;;;;;;26.80;31.97;94911.81;4907808;29;20078;-76
2021/05/29 09:58:51;;;;;;;2.88;1.00;;;;;;;26.84;31.58;94901.22;4916520;29;20024;-74
2021/05/29 10:01:43;;;;;;;2.35;1.10;;;;;;;26.77;32.02;94906.66;4929914;29;20030;-79
2021/05/29 10:04:13;;;;;;;3.33;1.20;;;;;;;26.78;31.91;94906.09;4930240;29;20048;-78
2021/05/29 10:06:38;;;;;;;2.45;1.40;;;;;;;26.86;31.76;94915.16;4930641;29;20043;-74
2021/05/29 10:09:04;;;;;;;1.58;1.20;;;;;;;26.83;31.74;94927.19;4930334;29;20039;-75
2021/05/29 10:11:31;;;;;;;6.20;1.23;;;;;;;26.82;31.85;94909.25;4925934;29;20479;-75
2021/05/29 10:13:56;;;;;;;4.25;1.95;;;;;;;26.88;31.40;94896.16;4891036;29;20496;-73
2021/05/29 10:16:22;;;;;;;3.80;1.67;;;;;;;26.93;31.22;94887.09;4890989;29;20047;-75
2021/05/29 10:18:49;;;;;;;4.22;1.10;;;;;;;26.92;31.06;94906.81;4888569;29;20039;-73
2021/05/29 10:21:14;;;;;;;3.80;1.27;;;;;;;26.86;31.12;94887.75;4908439;29;20409;-71
2021/05/29 10:23:40;;;;;;;1.80;0.95;;;;;;;26.98;30.50;94904.66;4914681;29;20058;-72
2021/05/29 10:26:05;;;;;;;2.58;1.00;;;;;;;26.86;30.86;94887.75;4922703;29;20032;-71
2021/05/29 10:28:31;;;;;;;2.05;1.25;;;;;;;27.07;31.13;94885.75;4914806;29;20027;-71
2021/05/29 10:30:56;;;;;;;1.77;0.82;;;;;;;27.09;31.02;94893.44;4935131;29;20044;-73
2021/05/29 10:33:23;;;;;;;3.58;0.88;;;;;;;27.12;30.45;94900.59;4913881;29;20483;-72
2021/05/29 10:35:48;;;;;;;10.00;1.25;;;;;;;27.15;30.14;94892.03;4921288;29;20530;-71
2021/05/29 10:38:14;;;;;;;4.35;0.90;;;;;;;26.95;30.67;94879.06;4911690;29;20031;-73
2021/05/29 10:40:43;;;;;;;1.73;0.70;;;;;;;27.03;30.64;94885.34;4927873;29;20427;-73
2021/05/29 10:43:15;;;;;;;2.55;0.85;;;;;;;26.97;30.65;94903.94;4901355;29;20028;-73
2021/05/29 10:45:49;;;;;;;2.53;1.05;;;;;;;27.04;29.90;94892.31;4941713;29;20079;-74
2021/05/29 10:48:15;;;;;;;1.65;1.02;;;;;;;27.08;30.12;94891.97;4928720;29;20036;-73
2021/05/29 10:50:56;;;;;;;3.40;1.10;;;;;;;27.14;30.60;94893.28;4927367;29;20064;-75
2021/05/29 10:53:38;;;;;;;4.40;1.10;;;;;;;27.08;29.44;94892.69;4930488;29;20118;-73
2021/05/29 10:56:18;;;;;;;1.10;0.70;;;;;;;27.10;30.14;94890.16;4924669;29;20044;-72
2021/05/29 10:59:25;;;;;;;2.00;1.15;;;;;;;27.18;30.71;94879.97;4930610;29;20479;-73
2021/05/29 11:01:53;;;;;;;2.33;1.05;;;;;;;27.26;30.54;94880.75;4927495;29;20049;-74
2021/05/29 11:04:19;;;;;;;1.13;0.80;;;;;;;27.31;30.08;94871.69;4928428;29;20409;-74
2021/05/29 11:06:54;;;;;;;2.25;0.80;;;;;;;27.37;30.09;94870.25;4925768;29;20471;-74
2021/05/29 11:09:32;;;;;;;1.55;0.90;;;;;;;27.46;30.20;94877.25;4928134;29;20028;-72
2021/05/29 11:12:04;;;;;;;1.30;0.80;;;;;;;27.45;30.32;94875.78;4927160;29;20066;-74
2021/05/29 11:14:30;;;;;;;2.95;0.82;;;;;;;27.41;29.97;94869.91;4927141;29;20024;-73
2021/05/29 11:16:56;;;;;;;2.08;1.05;;;;;;;27.45;29.79;94870.28;4924300;29;20134;-73
2021/05/29 11:19:33;;;;;;;3.42;0.93;;;;;;;27.42;30.41;94877.59;4928849;29;20035;-73
2021/05/29 11:22:18;;;;;;;5.05;1.02;;;;;;;27.58;29.99;94872.94;4925977;29;20028;-73
2021/05/29 11:24:50;;;;;;;1.73;0.90;;;;;;;27.63;30.78;94869.34;4927850;29;20046;-73
2021/05/29 11:27:25;;;;;;;1.90;1.00;;;;;;;27.68;30.20;94871.19;4928020;29;20031;-72
2021/05/29 11:30:11;;;;;;;1.50;1.08;;;;;;;27.74;30.61;94867.75;4928156;29;20047;-73
2021/05/29 11:32:57;;;;;;;3.10;0.82;;;;;;;27.77;30.96;94869.41;4929999;29;20534;-73
2021/05/29 11:35:27;;;;;;;2.05;1.20;;;;;;;27.91;30.18;94862.50;4925321;29;20039;-73
2021/05/29 11:38:25;;;;;;;4.25;1.33;;;;;;;27.94;29.70;94866.91;4929802;29;20040;-73
2021/05/29 11:41:12;;;;;;;2.20;0.90;;;;;;;28.04;29.32;94870.63;4926844;29;20039;-73
2021/05/29 11:43:56;;;;;;;3.78;0.80;;;;;;;27.93;29.42;94868.19;4920197;29;20030;-74
2021/05/29 11:46:29;;;;;;;2.03;0.93;;;;;;;28.07;28.96;94863.31;4927794;29;20077;-72
2021/05/29 11:48:59;;;;;;;1.10;0.80;;;;;;;28.04;30.01;94864.38;4913936;29;20035;-74